createdAt,value
2019-01-06T00:00:52.991Z,96.80
2019-01-06T00:03:58.416Z,96.83
2019-01-06T00:06:47.106Z,96.68
2019-01-06T00:09:49.271Z,96.73
2019-01-06T00:12:34.510Z,96.78
2019-01-06T00:15:20.528Z,97.09
2019-01-06T00:18:07.440Z,97.22
2019-01-06T00:21:12.671Z,97.26
2019-01-06T00:24:05.395Z,97.29
2019-01-06T00:26:52.366Z,97.24
2019-01-06T00:29:41.901Z,97.30
2019-01-06T00:32:28.831Z,97.21
2019-01-06T00:35:27.805Z,97.24
2019-01-06T00:38:14.755Z,97.17
2019-01-06T00:41:00.365Z,97.18
2019-01-06T00:43:50.265Z,97.37
2019-01-06T00:46:36.075Z,97.44
2019-01-06T00:49:23.032Z,97.47
2019-01-06T00:52:10.085Z,97.62
2019-01-06T00:55:09.147Z,97.59
2019-01-06T00:57:52.866Z,97.52
2019-01-06T01:00:38.573Z,97.51
2019-01-06T01:03:19.720Z,97.38
2019-01-06T01:06:05.292Z,97.32
2019-01-06T01:08:52.192Z,97.25
2019-01-06T01:11:47.925Z,97.28
2019-01-06T01:14:53.110Z,97.29
2019-01-06T01:17:49.165Z,97.32
2019-01-06T01:20:24.761Z,97.39
2019-01-06T01:23:14.726Z,97.44
2019-01-06T01:26:11.535Z,97.43
2019-01-06T01:28:58.475Z,97.46
2019-01-06T01:31:57.320Z,97.42
2019-01-06T01:34:46.781Z,97.43
2019-01-06T01:37:33.776Z,97.46
2019-01-06T01:40:32.645Z,97.44
2019-01-06T01:43:25.468Z,97.36
2019-01-06T01:46:24.770Z,97.36
2019-01-06T01:49:17.926Z,97.31
2019-01-06T01:52:00.006Z,97.26
2019-01-06T01:54:55.731Z,97.37
2019-01-06T01:57:41.446Z,97.49
2019-01-06T02:00:42.361Z,97.52
2019-01-06T02:03:18.486Z,97.55
2019-01-06T02:06:04.060Z,97.51
2019-01-06T02:08:49.666Z,97.43
2019-01-06T02:11:30.305Z,97.38
2019-01-06T02:14:35.440Z,97.49
2019-01-06T02:17:21.025Z,97.54
2019-01-06T02:20:08.035Z,97.48
2019-01-06T02:22:53.621Z,97.55
2019-01-06T02:25:39.102Z,97.59
2019-01-06T02:28:33.475Z,97.51
2019-01-06T02:31:19.448Z,97.41
2019-01-06T02:34:15.628Z,97.39
2019-01-06T02:37:02.610Z,97.43
2019-01-06T02:40:07.962Z,97.33
2019-01-06T02:42:53.400Z,97.26
2019-01-06T02:45:48.052Z,97.12
2019-01-06T02:48:35.241Z,97.17
2019-01-06T02:51:25.046Z,97.18
2019-01-06T02:54:10.946Z,97.14
2019-01-06T02:56:56.526Z,97.12
2019-01-06T02:59:42.251Z,97.11
2019-01-06T03:02:27.900Z,97.12
2019-01-06T03:05:20.607Z,97.24
2019-01-06T03:08:10.380Z,97.28
2019-01-06T03:11:03.258Z,97.23
2019-01-06T03:13:49.822Z,97.35
2019-01-06T03:16:39.445Z,97.37
2019-01-06T03:19:25.091Z,97.24
2019-01-06T03:22:10.671Z,97.23
2019-01-06T03:24:57.646Z,97.25
2019-01-06T03:27:50.558Z,97.25
2019-01-06T03:30:43.769Z,97.19
2019-01-06T03:33:30.741Z,97.15
2019-01-06T03:36:17.665Z,97.20
2019-01-06T03:39:04.751Z,97.20
2019-01-06T03:42:00.816Z,97.16
2019-01-06T03:44:50.687Z,97.11
2019-01-06T03:47:38.905Z,97.21
2019-01-06T03:50:26.474Z,97.27
2019-01-06T03:53:25.587Z,97.30
2019-01-06T03:56:15.218Z,97.31
2019-01-06T03:58:55.561Z,97.34
2019-01-06T04:01:48.180Z,97.23
2019-01-06T04:04:37.781Z,97.21
2019-01-06T04:07:23.465Z,97.19
2019-01-06T04:10:22.488Z,97.20
2019-01-06T04:13:13.821Z,97.30
2019-01-06T04:16:04.031Z,97.38
2019-01-06T04:19:00.120Z,97.42
2019-01-06T04:21:52.871Z,97.37
2019-01-06T04:24:38.531Z,97.46
2019-01-06T04:27:24.706Z,97.43
2019-01-06T04:30:17.345Z,97.55
2019-01-06T04:33:04.260Z,97.60
2019-01-06T04:36:09.360Z,97.74
2019-01-06T04:39:05.050Z,97.80
2019-01-06T04:42:03.920Z,97.83
2019-01-06T04:44:40.926Z,97.78
2019-01-06T04:47:26.468Z,97.81
2019-01-06T04:50:13.680Z,97.85
2019-01-06T04:53:09.620Z,97.82
2019-01-06T04:55:54.989Z,97.87
2019-01-06T04:58:35.140Z,97.80
2019-01-06T05:01:28.225Z,97.86
2019-01-06T05:04:08.547Z,97.80
2019-01-06T05:07:04.793Z,97.80
2019-01-06T05:10:00.885Z,97.76
2019-01-06T05:12:50.666Z,97.61
2019-01-06T05:15:43.732Z,97.58
2019-01-06T05:18:36.730Z,97.61
2019-01-06T05:21:22.306Z,97.70
2019-01-06T05:24:17.475Z,97.67
2019-01-06T05:27:19.580Z,97.72
2019-01-06T05:30:05.151Z,97.69
2019-01-06T05:32:57.695Z,97.68
2019-01-06T05:35:50.328Z,97.82
2019-01-06T05:38:55.363Z,97.85
2019-01-06T05:41:41.041Z,97.85
2019-01-06T05:44:31.150Z,97.97
2019-01-06T05:47:16.660Z,98.00
2019-01-06T05:50:02.281Z,98.00
2019-01-06T05:52:48.280Z,97.84
2019-01-06T05:55:45.486Z,97.78
2019-01-06T05:58:35.220Z,97.64
2019-01-06T06:01:20.771Z,97.62
2019-01-06T06:04:13.486Z,97.52
2019-01-06T06:07:12.751Z,97.54
2019-01-06T06:09:58.226Z,97.64
2019-01-06T06:12:43.839Z,97.84
2019-01-06T06:15:49.175Z,97.85
2019-01-06T06:18:51.200Z,97.93
2019-01-06T06:21:43.785Z,97.91
2019-01-06T06:24:36.330Z,97.92
2019-01-06T06:27:28.940Z,97.78
2019-01-06T06:30:24.935Z,97.78
2019-01-06T06:33:11.900Z,97.72
2019-01-06T06:35:57.521Z,97.74
2019-01-06T06:38:43.199Z,97.71
2019-01-06T06:41:22.667Z,97.76
2019-01-06T06:44:08.546Z,97.94
2019-01-06T06:47:01.411Z,97.67
2019-01-06T06:49:54.046Z,97.59
2019-01-06T06:52:31.972Z,97.56
2019-01-06T06:55:09.551Z,97.48
2019-01-06T06:58:39.965Z,97.50
2019-01-06T07:01:57.551Z,97.42
2019-01-06T07:04:57.591Z,97.51
2019-01-06T07:07:57.956Z,97.51
2019-01-06T07:10:43.279Z,97.57
2019-01-06T07:13:28.910Z,97.58
2019-01-06T07:16:24.671Z,97.50
2019-01-06T07:19:27.016Z,97.44
2019-01-06T07:22:31.960Z,97.35
2019-01-06T07:25:27.667Z,97.20
2019-01-06T07:28:17.851Z,97.32
2019-01-06T07:31:24.255Z,97.24
2019-01-06T07:34:13.840Z,97.30
2019-01-06T07:37:12.971Z,97.25
2019-01-06T07:40:02.520Z,97.30
2019-01-06T07:42:47.827Z,97.16
2019-01-06T07:46:00.496Z,97.16
2019-01-06T07:49:05.570Z,97.06
2019-01-06T07:51:52.706Z,97.07
2019-01-06T07:54:45.381Z,97.05
2019-01-06T07:57:44.726Z,97.05
2019-01-06T08:00:40.886Z,96.88
2019-01-06T08:03:39.985Z,96.87
2019-01-06T08:06:51.341Z,96.96
2019-01-06T08:09:36.941Z,96.92
2019-01-06T08:12:24.269Z,96.84
2019-01-06T08:15:05.787Z,96.83
2019-01-06T08:17:51.340Z,96.86
2019-01-06T08:20:36.920Z,96.74
2019-01-06T08:23:24.346Z,96.71
2019-01-06T08:26:19.672Z,96.74
2019-01-06T08:29:15.847Z,96.72
2019-01-06T08:31:56.945Z,96.62
2019-01-06T08:34:56.626Z,96.75
2019-01-06T08:37:49.771Z,96.66
2019-01-06T08:40:55.023Z,96.60
2019-01-06T08:43:57.265Z,96.54
2019-01-06T08:46:42.860Z,96.66
2019-01-06T08:49:32.843Z,96.72
2019-01-06T08:52:37.996Z,96.70
2019-01-06T08:55:25.040Z,96.45
2019-01-06T08:58:17.786Z,96.27
2019-01-06T09:01:03.625Z,96.12
2019-01-06T09:03:49.249Z,96.24
2019-01-06T09:06:54.378Z,96.22
2019-01-06T09:09:59.589Z,96.27
2019-01-06T09:12:49.480Z,96.25
2019-01-06T09:15:34.995Z,96.13
2019-01-06T09:18:20.416Z,96.04
2019-01-06T09:21:07.365Z,96.00
2019-01-06T09:24:12.461Z,95.93
2019-01-06T09:26:57.980Z,95.88
2019-01-06T09:29:49.206Z,95.59
2019-01-06T09:32:35.065Z,95.58
2019-01-06T09:35:35.826Z,95.61
2019-01-06T09:38:36.321Z,95.64
2019-01-06T09:41:29.406Z,95.39
2019-01-06T09:44:13.416Z,95.43
2019-01-06T09:47:12.266Z,95.40
2019-01-06T09:49:57.936Z,95.38
2019-01-06T09:52:43.547Z,95.61
2019-01-06T09:55:33.470Z,95.53
2019-01-06T09:58:20.490Z,95.58
2019-01-06T10:01:06.137Z,95.65
2019-01-06T10:03:53.036Z,95.65
2019-01-06T10:06:38.651Z,95.66
2019-01-06T10:09:29.856Z,95.49
2019-01-06T10:12:16.846Z,95.80
2019-01-06T10:15:07.090Z,95.88
2019-01-06T10:17:54.006Z,95.86
2019-01-06T10:20:52.566Z,95.85
2019-01-06T10:23:42.486Z,95.77
2019-01-06T10:26:35.966Z,95.69
2019-01-06T10:29:25.401Z,95.78
2019-01-06T10:32:13.385Z,95.76
2019-01-06T10:34:54.607Z,95.46
2019-01-06T10:37:40.295Z,95.34
2019-01-06T10:40:16.966Z,95.47
2019-01-06T10:43:07.265Z,95.50
2019-01-06T10:45:57.002Z,95.43
2019-01-06T10:48:55.701Z,95.41
2019-01-06T10:51:45.466Z,95.23
2019-01-06T10:54:32.346Z,95.04
2019-01-06T10:57:17.775Z,95.00
2019-01-06T11:00:04.701Z,95.03
2019-01-06T11:02:54.341Z,95.06
2019-01-06T11:05:59.630Z,95.09
2019-01-06T11:08:46.557Z,95.26
2019-01-06T11:11:45.746Z,95.36
2019-01-06T11:14:31.585Z,95.15
2019-01-06T11:17:17.441Z,95.14
2019-01-06T11:20:04.363Z,95.33
2019-01-06T11:22:49.884Z,95.28
2019-01-06T11:25:54.976Z,94.90
2019-01-06T11:28:56.821Z,94.57
2019-01-06T11:31:42.335Z,94.70
2019-01-06T11:34:28.265Z,94.70
2019-01-06T11:37:13.986Z,94.70
2019-01-06T11:40:00.907Z,94.82
2019-01-06T11:42:53.921Z,94.84
2019-01-06T11:45:55.780Z,95.16
2019-01-06T11:48:41.481Z,95.07
2019-01-06T11:51:32.315Z,94.90
2019-01-06T11:54:31.435Z,95.01
2019-01-06T11:57:27.601Z,94.73
2019-01-06T12:00:13.259Z,94.88
2019-01-06T12:03:15.430Z,94.93
2019-01-06T12:06:00.986Z,95.17
2019-01-06T12:08:42.120Z,94.96
2019-01-06T12:11:27.501Z,95.07
2019-01-06T12:14:20.133Z,94.79
2019-01-06T12:17:16.821Z,94.69
2019-01-06T12:20:06.676Z,94.72
2019-01-06T12:23:08.840Z,94.49
2019-01-06T12:25:55.779Z,94.54
2019-01-06T12:28:42.766Z,94.70
2019-01-06T12:31:28.716Z,94.72
2019-01-06T12:34:14.282Z,94.68
2019-01-06T12:37:13.196Z,94.82
2019-01-06T12:40:05.828Z,95.07
2019-01-06T12:43:06.182Z,95.13
2019-01-06T12:45:53.226Z,95.28
2019-01-06T12:48:38.970Z,95.15
2019-01-06T12:51:25.577Z,95.07
2019-01-06T12:54:10.921Z,95.05
2019-01-06T12:57:13.060Z,95.09
2019-01-06T13:00:15.295Z,95.37
2019-01-06T13:03:00.989Z,95.21
2019-01-06T13:05:57.011Z,94.96
2019-01-06T13:08:43.041Z,94.99
2019-01-06T13:11:30.060Z,95.00
2019-01-06T13:14:32.836Z,94.90
2019-01-06T13:17:18.600Z,94.59
2019-01-06T13:20:04.275Z,94.78
2019-01-06T13:22:50.446Z,95.05
2019-01-06T13:25:34.035Z,95.08
2019-01-06T13:28:19.621Z,95.04
2019-01-06T13:31:14.702Z,95.17
2019-01-06T13:34:17.120Z,95.33
2019-01-06T13:37:10.171Z,95.32
2019-01-06T13:40:12.616Z,95.27
2019-01-06T13:43:02.611Z,95.27
2019-01-06T13:46:02.911Z,95.04
2019-01-06T13:48:50.201Z,95.00
2019-01-06T13:51:50.445Z,95.14
2019-01-06T13:54:35.937Z,95.21
2019-01-06T13:57:35.145Z,95.24
2019-01-06T14:00:22.580Z,95.31
2019-01-06T14:03:19.046Z,95.16
2019-01-06T14:06:08.856Z,95.25
2019-01-06T14:08:54.446Z,95.22
2019-01-06T14:11:44.255Z,95.38
2019-01-06T14:14:31.525Z,95.37
2019-01-06T14:17:17.565Z,95.36
2019-01-06T14:20:04.636Z,95.29
2019-01-06T14:22:51.856Z,95.06
2019-01-06T14:25:41.646Z,95.32
2019-01-06T14:28:27.191Z,95.33
2019-01-06T14:31:26.430Z,95.25
2019-01-06T14:34:12.530Z,95.45
2019-01-06T14:37:02.431Z,95.22
2019-01-06T14:39:48.886Z,95.42
2019-01-06T14:42:41.986Z,95.48
2019-01-06T14:45:39.545Z,95.54
2019-01-06T14:48:33.090Z,95.57
2019-01-06T14:51:23.781Z,95.44
2019-01-06T14:54:04.300Z,95.53
2019-01-06T14:56:52.810Z,95.33
2019-01-06T14:59:38.896Z,95.57
2019-01-06T15:02:28.739Z,95.65
2019-01-06T15:05:14.785Z,95.72
2019-01-06T15:08:04.916Z,95.74
2019-01-06T15:10:52.766Z,95.99
2019-01-06T15:14:01.359Z,95.95
2019-01-06T15:17:06.971Z,96.05
2019-01-06T15:19:56.671Z,96.03
2019-01-06T15:23:13.846Z,96.00
2019-01-06T15:26:01.990Z,95.93
2019-01-06T15:29:29.829Z,95.98
2019-01-06T15:32:17.981Z,95.91
2019-01-06T15:35:25.935Z,95.98
2019-01-06T15:38:15.895Z,96.06
2019-01-06T15:41:36.095Z,96.17
2019-01-06T15:44:34.708Z,96.07
2019-01-06T15:51:11.397Z,96.00
2019-01-06T15:54:07.383Z,95.95
2019-01-06T15:57:29.894Z,95.98
2019-01-06T16:01:09.679Z,96.00
2019-01-06T16:04:10.834Z,95.99
2019-01-06T16:07:28.327Z,95.84
2019-01-06T16:10:34.375Z,95.75
2019-01-06T16:16:55.624Z,95.67
2019-01-06T16:20:17.351Z,95.62
2019-01-06T16:23:03.192Z,95.70
2019-01-06T16:25:50.441Z,95.86
2019-01-06T16:28:46.536Z,95.83
2019-01-06T16:31:42.740Z,95.66
2019-01-06T16:34:28.823Z,95.42
2019-01-06T16:37:14.941Z,95.42
2019-01-06T16:40:15.746Z,95.37
2019-01-06T16:43:15.198Z,95.42
2019-01-06T16:46:00.400Z,95.19
2019-01-06T16:48:56.776Z,95.03
2019-01-06T16:51:50.305Z,94.73
2019-01-06T16:54:35.880Z,94.47
2019-01-06T16:57:26.372Z,94.28
2019-01-06T17:00:20.031Z,94.31
2019-01-06T17:03:13.136Z,94.27
2019-01-06T17:06:18.966Z,94.13
2019-01-06T17:09:05.210Z,94.02
2019-01-06T17:11:55.701Z,93.92
2019-01-06T17:14:45.821Z,93.80
2019-01-06T17:17:24.834Z,94.10
2019-01-06T17:20:14.805Z,94.20
2019-01-06T17:23:04.906Z,94.35
2019-01-06T17:26:07.021Z,94.57
2019-01-06T17:29:03.132Z,94.77
2019-01-06T17:31:59.306Z,94.71
2019-01-06T17:34:52.510Z,95.14
2019-01-06T17:37:57.896Z,95.46
2019-01-06T17:40:43.570Z,95.50
2019-01-06T17:43:34.003Z,95.49
2019-01-06T17:46:36.696Z,95.54
2019-01-06T17:49:23.238Z,95.53
2019-01-06T17:52:28.666Z,95.36
2019-01-06T17:55:34.253Z,95.38
2019-01-06T17:58:20.188Z,95.54
2019-01-06T18:01:11.731Z,95.50
2019-01-06T18:03:59.123Z,95.48
2019-01-06T18:06:54.256Z,95.34
2019-01-06T18:09:53.841Z,95.41
2019-01-06T18:12:46.867Z,95.53
2019-01-06T18:15:40.014Z,95.58
2019-01-06T18:18:42.699Z,95.72
2019-01-06T18:21:35.752Z,95.74
2019-01-06T18:24:34.963Z,95.69
2019-01-06T18:27:21.240Z,95.91
2019-01-06T18:30:26.643Z,96.00
2019-01-06T18:33:16.740Z,96.05
2019-01-06T18:36:06.570Z,96.05
2019-01-06T18:39:08.332Z,96.06
2019-01-06T18:41:51.960Z,95.98
2019-01-06T18:44:39.436Z,95.82
2019-01-06T18:47:26.275Z,95.59
2019-01-06T18:50:22.284Z,95.39
2019-01-06T18:53:19.176Z,95.35
2019-01-06T18:56:08.524Z,95.38
2019-01-06T18:58:56.051Z,95.38
2019-01-06T19:01:59.126Z,95.17
2019-01-06T19:04:42.283Z,95.07
2019-01-06T19:07:35.906Z,95.02
2019-01-06T19:10:24.911Z,95.14
2019-01-06T19:13:13.164Z,95.03
2019-01-06T19:16:04.414Z,94.96
2019-01-06T19:19:07.548Z,94.90
2019-01-06T19:21:53.886Z,94.79
2019-01-06T19:24:41.283Z,94.51
2019-01-06T19:27:31.707Z,94.54
2019-01-06T19:30:34.364Z,94.63
2019-01-06T19:33:20.623Z,94.38
2019-01-06T19:36:26.444Z,94.40
2019-01-06T19:39:19.823Z,94.37
2019-01-06T19:42:16.395Z,94.26
2019-01-06T19:45:09.964Z,94.24
2019-01-06T19:48:06.264Z,94.23
2019-01-06T19:51:12.064Z,93.95
2019-01-06T19:53:58.112Z,94.03
2019-01-06T19:56:51.408Z,94.04
2019-01-06T19:59:37.653Z,93.89
2019-01-06T20:02:27.893Z,93.43
2019-01-06T20:05:24.193Z,93.12
2019-01-06T20:08:14.739Z,92.71
2019-01-06T20:11:00.958Z,92.34
2019-01-06T20:13:54.394Z,92.46
2019-01-06T20:16:57.248Z,92.80
2019-01-06T20:19:47.338Z,92.78
2019-01-06T20:22:37.624Z,92.80
2019-01-06T20:25:31.098Z,92.53
2019-01-06T20:28:17.469Z,92.40
2019-01-06T20:31:14.034Z,92.57
2019-01-06T20:34:00.282Z,92.78
2019-01-06T20:36:46.109Z,92.68
2019-01-06T20:39:32.568Z,92.45
2019-01-06T20:42:35.433Z,92.70
2019-01-06T20:45:23.519Z,92.54
2019-01-06T20:48:28.954Z,92.12
2019-01-06T20:51:21.801Z,92.35
2019-01-06T20:54:09.113Z,92.65
2019-01-06T20:56:55.273Z,92.52
2019-01-06T20:59:40.196Z,92.51
2019-01-06T21:02:33.688Z,92.47
2019-01-06T21:05:17.649Z,92.68
2019-01-06T21:08:16.967Z,92.46
2019-01-06T21:11:07.148Z,92.54
2019-01-06T21:13:53.278Z,92.36
2019-01-06T21:16:39.008Z,92.39
2019-01-06T21:19:32.448Z,92.22
2019-01-06T21:22:19.870Z,92.35
2019-01-06T21:25:13.278Z,92.77
2019-01-06T21:28:03.724Z,92.58
2019-01-06T21:30:56.838Z,92.61
2019-01-06T21:33:42.570Z,92.60
2019-01-06T21:36:30.295Z,92.48
2019-01-06T21:39:16.363Z,92.65
2019-01-06T21:42:03.756Z,92.78
2019-01-06T21:44:51.168Z,92.82
2019-01-06T21:47:38.959Z,93.08
2019-01-06T21:50:29.108Z,93.07
2019-01-06T21:53:31.308Z,93.14
2019-01-06T21:56:26.133Z,93.25
2019-01-06T21:59:25.261Z,93.37
2019-01-06T22:02:10.863Z,93.45
2019-01-06T22:05:13.655Z,93.39
2019-01-06T22:08:07.124Z,93.45
2019-01-06T22:11:06.414Z,93.65
2019-01-06T22:13:54.166Z,93.41
2019-01-06T22:16:50.032Z,93.29
2019-01-06T22:19:36.028Z,93.04
2019-01-06T22:22:20.488Z,92.95
2019-01-06T22:25:05.829Z,92.91
2019-01-06T22:27:52.903Z,92.75
2019-01-06T22:30:43.162Z,92.81
2019-01-06T22:33:29.259Z,92.85
2019-01-06T22:36:28.208Z,92.83
2019-01-06T22:39:08.811Z,92.86
2019-01-06T22:42:07.548Z,92.73
2019-01-06T22:45:09.899Z,92.86
2019-01-06T22:47:59.980Z,93.01
2019-01-06T22:50:47.314Z,93.17
2019-01-06T22:53:34.253Z,93.22
2019-01-06T22:56:21.514Z,93.24
2019-01-06T22:59:25.856Z,93.14
2019-01-06T23:02:22.588Z,92.92
2019-01-06T23:05:07.598Z,93.20
2019-01-06T23:08:03.293Z,93.43
2019-01-06T23:10:59.118Z,93.42
2019-01-06T23:13:57.839Z,93.72
2019-01-06T23:16:47.587Z,93.86
2019-01-06T23:19:33.459Z,93.97
2019-01-06T23:22:21.968Z,94.00
2019-01-06T23:25:09.041Z,94.20
2019-01-06T23:28:09.216Z,94.34
2019-01-06T23:31:06.920Z,94.47
2019-01-06T23:33:56.769Z,94.58
2019-01-06T23:36:42.264Z,94.64
2019-01-06T23:39:28.500Z,94.45
2019-01-06T23:42:15.913Z,94.57
2019-01-06T23:45:05.493Z,94.38
2019-01-06T23:47:46.899Z,94.46
2019-01-06T23:50:43.165Z,94.29
2019-01-06T23:53:30.068Z,94.28
2019-01-06T23:56:31.329Z,93.94
2019-01-06T23:59:23.310Z,93.78
